Time;durP1;ratioP1;P1;durP2;ratioP2;P2;SDS_P1;SDS_P2;PMS_P1;PMS_P2;Temp;Humidity;BMP_temperature;BMP_pressure;BME280_temperature;BME280_humidity;BME280_pressure;Samples;Min_cycle;Max_cycle;Signal;HPM_P1;HPM_P2
2023/06/22 00:01:22;;;;;;;7.40;3.35;;;24.40;1.00;;;;;;4934684;29;20122;-57
2023/06/22 00:03:49;;;;;;;3.67;2.53;;;24.40;1.00;;;;;;4934702;29;20043;-56
2023/06/22 00:06:16;;;;;;;6.32;4.05;;;24.40;1.00;;;;;;4934650;29;20127;-56
2023/06/22 00:08:43;;;;;;;5.05;2.83;;;24.40;1.00;;;;;;4934719;29;20048;-56
2023/06/22 00:11:10;;;;;;;7.18;3.35;;;24.40;1.00;;;;;;4934604;29;20514;-57
2023/06/22 00:13:38;;;;;;;4.57;2.97;;;24.40;1.00;;;;;;4932894;29;20082;-57
2023/06/22 00:16:05;;;;;;;5.18;3.33;;;24.40;1.00;;;;;;4935038;29;20071;-55
2023/06/22 00:18:32;;;;;;;4.57;2.65;;;24.40;1.00;;;;;;4984434;23;20065;-53
2023/06/22 00:20:59;;;;;;;5.25;3.28;;;24.40;1.00;;;;;;4913774;29;20143;-56
2023/06/22 00:23:26;;;;;;;4.38;3.03;;;24.40;1.00;;;;;;4910488;29;20048;-56
2023/06/22 00:25:53;;;;;;;4.95;2.80;;;24.40;1.00;;;;;;4915568;29;20056;-57
2023/06/22 00:28:20;;;;;;;4.07;2.53;;;24.40;1.00;;;;;;4915440;29;20063;-56
2023/06/22 00:30:48;;;;;;;5.53;3.22;;;24.40;1.00;;;;;;4913866;29;20507;-54
2023/06/22 00:33:15;;;;;;;4.28;2.92;;;24.40;1.00;;;;;;4914290;29;20111;-51
2023/06/22 00:35:43;;;;;;;5.75;2.97;;;24.40;1.00;;;;;;4915487;29;20117;-49
2023/06/22 00:38:11;;;;;;;4.50;2.50;;;24.30;1.00;;;;;;4914118;29;20052;-52
2023/06/22 00:40:38;;;;;;;4.10;2.95;;;24.30;1.00;;;;;;4915305;29;20067;-50
2023/06/22 00:43:05;;;;;;;3.80;2.65;;;24.30;1.00;;;;;;4913898;29;20052;-54
2023/06/22 00:45:32;;;;;;;3.40;2.60;;;24.40;1.00;;;;;;4914107;29;20112;-52
2023/06/22 00:48:00;;;;;;;4.35;2.72;;;24.30;1.00;;;;;;4914160;29;20143;-51
2023/06/22 00:50:34;;;;;;;4.03;2.47;;;24.30;1.00;;;;;;4913363;29;20136;-50
2023/06/22 00:53:08;;;;;;;4.07;2.50;;;24.30;1.00;;;;;;4914808;29;20054;-50
2023/06/22 00:55:46;;;;;;;3.65;2.60;;;24.30;1.00;;;;;;4926025;29;20048;-54
2023/06/22 00:58:14;;;;;;;4.53;2.70;;;24.30;1.00;;;;;;4915117;29;20059;-51
2023/06/22 01:00:41;;;;;;;5.35;2.58;;;24.30;1.00;;;;;;4913884;29;20470;-51
2023/06/22 01:03:08;;;;;;;3.65;2.75;;;24.30;1.00;;;;;;4913858;29;20056;-52
2023/06/22 01:05:37;;;;;;;3.72;2.75;;;24.30;1.00;;;;;;4914096;29;20044;-54
2023/06/22 01:08:16;;;;;;;4.22;2.80;;;24.30;1.00;;;;;;4915321;29;20050;-55
2023/06/22 01:11:02;;;;;;;3.78;2.20;;;24.30;1.00;;;;;;4898421;29;20048;-57
2023/06/22 01:13:55;;;;;;;3.97;2.50;;;24.30;1.00;;;;;;4915395;29;20043;-53
2023/06/22 01:16:34;;;;;;;3.90;2.72;;;24.20;1.00;;;;;;4913841;29;20131;-57
2023/06/22 01:19:13;;;;;;;4.25;2.70;;;24.20;1.00;;;;;;4915165;29;20040;-57
2023/06/22 01:22:04;;;;;;;2.85;2.03;;;24.20;1.00;;;;;;4928021;29;20138;-54
2023/06/22 01:24:42;;;;;;;3.53;2.47;;;24.20;1.00;;;;;;4934460;29;20063;-58
2023/06/22 01:27:35;;;;;;;3.30;1.90;;;24.20;1.00;;;;;;4937464;29;20036;-56
2023/06/22 01:30:05;;;;;;;2.97;2.33;;;24.20;1.00;;;;;;4929740;29;20048;-56
2023/06/22 01:32:37;;;;;;;3.10;2.00;;;24.20;1.00;;;;;;4929618;29;20506;-55
2023/06/22 01:35:06;;;;;;;2.97;1.90;;;24.20;1.00;;;;;;4927578;29;20048;-50
2023/06/22 01:37:35;;;;;;;2.40;1.85;;;24.20;1.00;;;;;;4932773;29;20048;-54
2023/06/22 01:40:05;;;;;;;2.60;1.63;;;24.20;1.00;;;;;;4933218;29;20508;-55
2023/06/22 01:42:33;;;;;;;2.83;2.08;;;24.20;1.00;;;;;;4937045;29;20054;-55
2023/06/22 01:45:01;;;;;;;2.20;1.55;;;24.20;1.00;;;;;;4932962;29;20055;-57
2023/06/22 01:47:30;;;;;;;2.33;1.73;;;24.20;1.00;;;;;;4936466;29;20077;-55
2023/06/22 01:49:59;;;;;;;3.97;1.80;;;24.20;1.00;;;;;;4936467;29;20048;-56
2023/06/22 01:52:26;;;;;;;4.32;2.30;;;24.20;1.00;;;;;;4928463;29;20114;-55
2023/06/22 01:54:53;;;;;;;2.78;1.65;;;24.20;1.00;;;;;;4932682;29;20100;-51
2023/06/22 01:57:20;;;;;;;2.63;1.80;;;24.20;1.00;;;;;;4935147;29;20044;-52
2023/06/22 01:59:57;;;;;;;2.80;1.80;;;24.20;1.00;;;;;;4932540;29;20531;-56
2023/06/22 02:02:29;;;;;;;2.60;1.52;;;24.10;1.00;;;;;;4933288;29;20048;-51
2023/06/22 02:05:01;;;;;;;4.80;2.35;;;24.10;1.00;;;;;;4937132;29;20048;-54
2023/06/22 02:07:59;;;;;;;2.50;1.70;;;24.10;1.00;;;;;;4934895;29;20044;-56
2023/06/22 02:10:27;;;;;;;5.68;2.70;;;24.10;1.00;;;;;;4934612;29;20083;-57
2023/06/22 02:12:58;;;;;;;1.80;1.27;;;24.10;1.00;;;;;;4932009;29;20131;-54
2023/06/22 02:15:26;;;;;;;2.38;1.65;;;24.10;1.00;;;;;;4933378;29;20048;-56
2023/06/22 02:17:54;;;;;;;10.52;1.95;;;24.10;1.00;;;;;;4935482;29;20044;-52
2023/06/22 02:23:20;;;;;;;3.05;1.83;;;24.10;1.00;;;;;;5030509;23;20515;-52
2023/06/22 02:25:47;;;;;;;2.50;1.67;;;24.10;1.00;;;;;;4928779;29;20468;-51
2023/06/22 02:28:14;;;;;;;2.85;1.75;;;24.10;1.00;;;;;;4918522;29;20066;-52
2023/06/22 02:30:40;;;;;;;5.15;1.98;;;24.00;1.00;;;;;;4933895;29;20107;-53
2023/06/22 02:33:07;;;;;;;2.47;1.40;;;24.00;1.00;;;;;;4919340;29;20104;-50
2023/06/22 02:35:35;;;;;;;2.83;1.70;;;24.00;1.00;;;;;;4915140;29;20051;-56
2023/06/22 02:38:03;;;;;;;3.55;2.03;;;24.00;1.00;;;;;;4917238;29;20046;-53
2023/06/22 02:40:31;;;;;;;2.05;1.50;;;24.00;1.00;;;;;;4916766;29;20055;-54
2023/06/22 02:43:01;;;;;;;2.88;1.95;;;24.00;1.00;;;;;;4920513;29;20135;-52
2023/06/22 02:45:29;;;;;;;3.40;1.88;;;24.00;1.00;;;;;;4917061;29;20075;-56
2023/06/22 02:47:56;;;;;;;2.95;1.65;;;24.00;1.00;;;;;;4917067;29;20127;-55
2023/06/22 02:50:24;;;;;;;2.58;1.65;;;24.00;1.00;;;;;;4915487;29;20048;-53
2023/06/22 02:52:52;;;;;;;3.40;2.22;;;24.00;1.00;;;;;;4915495;29;20151;-50
2023/06/22 02:55:18;;;;;;;2.25;1.33;;;24.00;1.00;;;;;;5018993;23;20055;-52
2023/06/22 02:57:52;;;;;;;3.40;2.50;;;24.00;1.00;;;;;;4936260;29;20052;-56
2023/06/22 03:00:21;;;;;;;2.65;1.73;;;24.00;1.00;;;;;;4934421;29;20043;-54
2023/06/22 03:02:49;;;;;;;2.63;1.90;;;24.00;1.00;;;;;;4934314;29;20040;-52
2023/06/22 03:05:18;;;;;;;2.17;1.55;;;24.00;1.00;;;;;;4934352;29;20047;-54
2023/06/22 03:07:45;;;;;;;5.57;1.88;;;24.00;1.00;;;;;;4934426;29;20563;-51
2023/06/22 03:10:13;;;;;;;4.03;1.90;;;24.00;1.00;;;;;;4935407;29;20035;-52
2023/06/22 03:12:42;;;;;;;2.95;1.77;;;24.00;1.00;;;;;;4934147;29;20075;-53
2023/06/22 03:15:11;;;;;;;3.72;2.47;;;24.00;1.00;;;;;;4935516;29;20067;-56
2023/06/22 03:17:39;;;;;;;2.88;1.70;;;24.00;1.00;;;;;;4933254;29;20468;-53
2023/06/22 03:20:11;;;;;;;2.30;1.30;;;23.90;1.00;;;;;;4933054;29;20059;-53
2023/06/22 03:22:39;;;;;;;3.85;1.50;;;23.90;1.00;;;;;;4933234;29;20055;-52
2023/06/22 03:25:10;;;;;;;2.72;1.55;;;23.90;1.00;;;;;;4918402;29;20052;-55
2023/06/22 03:27:39;;;;;;;2.92;1.98;;;23.90;1.00;;;;;;4918268;29;20142;-50
2023/06/22 03:30:09;;;;;;;3.70;1.80;;;23.90;1.00;;;;;;4917700;29;20040;-53
2023/06/22 03:32:36;;;;;;;2.90;1.88;;;23.90;1.00;;;;;;4914380;29;20055;-56
2023/06/22 03:35:06;;;;;;;3.25;1.83;;;23.90;1.00;;;;;;4921994;29;20040;-54
2023/06/22 03:37:35;;;;;;;2.20;1.58;;;23.90;1.00;;;;;;4933769;29;20079;-51
2023/06/22 03:40:05;;;;;;;2.88;2.03;;;23.90;1.00;;;;;;4924104;29;20051;-50
2023/06/22 03:42:35;;;;;;;2.50;1.48;;;23.90;1.00;;;;;;4917266;29;20086;-56
2023/06/22 03:45:03;;;;;;;2.35;1.88;;;23.90;1.00;;;;;;4917884;29;20542;-51
2023/06/22 03:47:30;;;;;;;3.38;2.45;;;23.90;1.00;;;;;;4934507;29;20042;-53
2023/06/22 03:49:58;;;;;;;3.17;2.22;;;23.80;1.00;;;;;;4933609;29;20099;-53
2023/06/22 03:52:25;;;;;;;2.92;1.58;;;23.90;1.00;;;;;;4934410;29;20088;-50
2023/06/22 03:54:52;;;;;;;4.63;1.88;;;23.80;1.00;;;;;;4977659;23;20018;-51
2023/06/22 03:57:18;;;;;;;3.42;2.45;;;23.90;1.00;;;;;;4932078;29;20044;-52
2023/06/22 03:59:45;;;;;;;2.88;1.85;;;23.90;1.00;;;;;;4934607;29;20583;-54
2023/06/22 04:02:12;;;;;;;2.70;1.83;;;23.80;1.00;;;;;;4930769;29;20080;-54
2023/06/22 04:04:39;;;;;;;6.95;5.00;;;23.80;1.00;;;;;;4921648;29;20036;-50
2023/06/22 04:07:07;;;;;;;11.10;6.93;;;23.80;1.00;;;;;;4929848;29;20065;-50
2023/06/22 04:09:34;;;;;;;10.25;6.78;;;23.80;1.00;;;;;;4932598;29;20238;-55
2023/06/22 04:12:02;;;;;;;8.82;6.40;;;23.80;1.00;;;;;;4930527;29;20040;-52
2023/06/22 04:14:29;;;;;;;10.65;7.18;;;23.70;1.00;;;;;;4923918;29;20405;-55
2023/06/22 04:16:55;;;;;;;16.33;8.40;;;23.70;1.00;;;;;;4922029;29;20402;-53
2023/06/22 04:19:23;;;;;;;11.98;7.57;;;23.70;1.00;;;;;;4928607;29;20052;-55
2023/06/22 04:21:50;;;;;;;11.73;7.82;;;23.70;1.00;;;;;;4934161;29;20408;-55
2023/06/22 04:24:17;;;;;;;16.13;8.75;;;23.60;1.00;;;;;;4928534;29;20131;-57
2023/06/22 04:26:45;;;;;;;23.05;7.68;;;23.60;1.00;;;;;;5163057;23;20138;-56
2023/06/22 04:29:12;;;;;;;14.98;7.75;;;23.60;1.00;;;;;;4936132;29;20068;-56
2023/06/22 04:31:39;;;;;;;14.68;7.65;;;23.60;1.00;;;;;;4933558;29;20154;-57
2023/06/22 04:34:08;;;;;;;9.38;5.95;;;23.60;1.00;;;;;;4914544;29;20050;-57
2023/06/22 04:36:37;;;;;;;10.30;5.82;;;23.60;1.00;;;;;;4915318;29;20044;-56
2023/06/22 04:39:09;;;;;;;10.10;5.47;;;23.60;1.00;;;;;;4915310;29;20404;-53
2023/06/22 04:41:43;;;;;;;11.90;6.63;;;23.60;1.00;;;;;;4926596;29;20468;-57
2023/06/22 04:44:10;;;;;;;13.27;4.25;;;23.60;1.00;;;;;;4934075;29;20051;-57
2023/06/22 04:46:38;;;;;;;9.43;4.38;;;23.60;1.00;;;;;;4934201;29;20052;-57
2023/06/22 04:49:11;;;;;;;6.70;4.30;;;23.60;1.00;;;;;;4934187;29;20114;-56
2023/06/22 04:51:40;;;;;;;6.20;3.40;;;23.60;1.00;;;;;;4934047;29;20447;-56
2023/06/22 04:54:08;;;;;;;5.47;3.63;;;23.60;1.00;;;;;;4930247;29;20036;-56
2023/06/22 04:56:36;;;;;;;6.10;3.45;;;23.60;1.00;;;;;;4926197;29;20044;-56
2023/06/22 04:59:03;;;;;;;5.22;3.70;;;23.60;1.00;;;;;;5109412;23;20076;-57
2023/06/22 05:01:34;;;;;;;6.03;3.05;;;23.60;1.00;;;;;;4917829;29;20132;-56
2023/06/22 05:04:02;;;;;;;5.15;2.50;;;23.60;1.00;;;;;;4918289;29;20050;-53
2023/06/22 05:06:29;;;;;;;4.35;3.08;;;23.60;1.00;;;;;;4918531;29;20044;-56
2023/06/22 05:08:57;;;;;;;4.25;2.92;;;23.60;1.00;;;;;;4918760;29;20040;-54
2023/06/22 05:11:28;;;;;;;5.68;3.15;;;23.60;1.00;;;;;;4918446;29;20441;-52
2023/06/22 05:13:55;;;;;;;5.18;2.78;;;23.60;1.00;;;;;;4918502;29;20131;-56
2023/06/22 05:16:24;;;;;;;3.28;2.30;;;23.60;1.00;;;;;;4918511;29;20493;-56
2023/06/22 05:18:54;;;;;;;4.43;3.00;;;23.60;1.00;;;;;;4918447;29;20048;-54
2023/06/22 05:21:24;;;;;;;3.88;2.80;;;23.60;1.00;;;;;;4918235;29;20496;-54
2023/06/22 05:23:52;;;;;;;3.58;2.22;;;23.60;1.00;;;;;;4917050;29;20052;-56
2023/06/22 05:26:20;;;;;;;3.95;2.67;;;23.60;1.00;;;;;;4918231;29;20048;-56
2023/06/22 05:28:48;;;;;;;4.45;2.80;;;23.60;1.00;;;;;;4916592;29;20055;-58
2023/06/22 05:31:16;;;;;;;3.22;2.20;;;23.60;1.00;;;;;;4915479;29;20496;-55
2023/06/22 05:33:44;;;;;;;6.03;2.45;;;23.60;1.00;;;;;;4918043;29;20048;-55
2023/06/22 05:36:12;;;;;;;3.60;2.15;;;23.60;1.00;;;;;;4918005;29;20048;-57
2023/06/22 05:38:40;;;;;;;3.55;2.28;;;23.60;1.00;;;;;;4918254;29;20519;-53
2023/06/22 05:41:07;;;;;;;3.60;2.58;;;23.60;1.00;;;;;;4917935;29;20053;-54
2023/06/22 05:43:34;;;;;;;4.30;2.08;;;23.60;1.00;;;;;;4917931;29;20086;-56
2023/06/22 05:46:02;;;;;;;2.78;2.05;;;23.60;1.00;;;;;;4918032;29;20040;-52
2023/06/22 05:48:29;;;;;;;2.83;1.85;;;23.60;1.00;;;;;;4917835;29;20103;-54
2023/06/22 05:50:56;;;;;;;3.58;1.92;;;23.60;1.00;;;;;;4917720;29;20129;-53
2023/06/22 05:53:22;;;;;;;2.38;1.80;;;23.60;1.00;;;;;;4917673;29;20067;-52
2023/06/22 05:55:49;;;;;;;4.55;1.55;;;23.60;1.00;;;;;;4917731;29;20044;-52
2023/06/22 05:58:16;;;;;;;5.63;3.03;;;23.60;1.00;;;;;;4917788;29;20044;-51
2023/06/22 06:00:43;;;;;;;3.17;2.17;;;23.60;1.00;;;;;;4918284;29;20500;-53
2023/06/22 06:03:10;;;;;;;3.60;2.10;;;23.60;1.00;;;;;;4917379;29;20044;-54
2023/06/22 06:05:41;;;;;;;4.72;1.90;;;23.60;1.00;;;;;;4917713;29;20074;-55
2023/06/22 06:08:08;;;;;;;2.88;2.03;;;23.60;1.00;;;;;;4917779;29;20044;-57
2023/06/22 06:10:35;;;;;;;3.65;1.88;;;23.60;1.00;;;;;;4917506;29;20054;-56
2023/06/22 06:13:04;;;;;;;3.10;1.33;;;23.60;1.00;;;;;;4917440;29;20456;-53
2023/06/22 06:15:32;;;;;;;2.22;1.73;;;23.60;1.00;;;;;;4917571;29;20040;-57
2023/06/22 06:17:59;;;;;;;4.20;2.17;;;23.60;1.00;;;;;;4917599;29;20048;-53
2023/06/22 06:20:29;;;;;;;3.90;1.83;;;23.60;1.00;;;;;;4917423;29;20390;-52
2023/06/22 06:22:57;;;;;;;2.80;2.00;;;23.60;1.00;;;;;;4917327;29;20139;-52
2023/06/22 06:25:24;;;;;;;4.80;1.95;;;23.70;1.00;;;;;;4917479;29;20104;-56
2023/06/22 06:27:51;;;;;;;2.33;2.00;;;23.60;1.00;;;;;;4917205;29;20130;-53
2023/06/22 06:30:19;;;;;;;2.40;2.20;;;23.70;1.00;;;;;;5002708;23;20110;-53
2023/06/22 06:32:46;;;;;;;4.40;2.00;;;23.70;1.00;;;;;;4955159;28;20051;-53
2023/06/22 06:35:15;;;;;;;2.67;1.98;;;23.70;1.00;;;;;;4954003;29;20106;-54
2023/06/22 06:37:45;;;;;;;4.90;2.75;;;23.70;1.00;;;;;;4955233;28;20515;-52
2023/06/22 06:40:13;;;;;;;4.10;2.13;;;23.70;1.00;;;;;;4954935;28;20047;-55
2023/06/22 06:42:45;;;;;;;2.53;2.00;;;23.70;1.00;;;;;;4954920;28;20126;-52
2023/06/22 06:45:13;;;;;;;4.03;2.30;;;23.70;1.00;;;;;;4954957;28;20082;-53
2023/06/22 06:47:39;;;;;;;6.50;2.67;;;23.80;1.00;;;;;;4953713;29;20047;-53
2023/06/22 06:50:07;;;;;;;4.20;2.70;;;23.80;1.00;;;;;;4955006;29;20051;-51
2023/06/22 06:52:35;;;;;;;3.42;2.15;;;23.80;1.00;;;;;;4954580;28;20047;-53
2023/06/22 06:55:11;;;;;;;3.45;2.58;;;23.80;1.00;;;;;;4955076;28;20051;-54
2023/06/22 06:57:39;;;;;;;4.90;2.05;;;23.80;1.00;;;;;;4954606;28;20500;-55
2023/06/22 07:03:02;;;;;;;2.83;2.05;;;23.80;1.00;;;;;;5159560;23;20071;-56
2023/06/22 07:05:29;;;;;;;3.30;2.58;;;23.80;1.00;;;;;;4934765;29;20404;-56
2023/06/22 07:07:56;;;;;;;4.28;2.22;;;23.80;1.00;;;;;;4935567;29;20095;-56
2023/06/22 07:10:23;;;;;;;4.15;2.45;;;23.80;1.00;;;;;;4935291;29;20078;-51
2023/06/22 07:12:50;;;;;;;3.17;2.45;;;23.80;1.00;;;;;;4935034;29;20103;-54
2023/06/22 07:15:17;;;;;;;3.40;2.20;;;23.80;1.00;;;;;;4935410;29;20110;-53
2023/06/22 07:17:43;;;;;;;4.15;2.70;;;23.90;1.00;;;;;;4935449;29;20470;-54
2023/06/22 07:20:14;;;;;;;4.78;2.58;;;23.90;1.00;;;;;;4935237;29;20044;-57
2023/06/22 07:22:43;;;;;;;3.47;2.35;;;23.90;1.00;;;;;;4934685;29;20048;-56
2023/06/22 07:25:10;;;;;;;4.38;2.55;;;23.90;1.00;;;;;;4935223;29;20051;-55
2023/06/22 07:27:39;;;;;;;3.95;2.25;;;23.90;1.00;;;;;;4935241;29;20395;-57
2023/06/22 07:30:07;;;;;;;2.55;1.90;;;23.90;1.00;;;;;;4935027;29;20040;-59
2023/06/22 07:32:34;;;;;;;3.53;2.33;;;23.90;1.00;;;;;;4934888;29;20036;-57
2023/06/22 07:35:01;;;;;;;3.88;2.38;;;23.90;1.00;;;;;;5168321;23;20135;-57
2023/06/22 07:37:28;;;;;;;3.35;2.42;;;23.90;1.00;;;;;;4934934;29;20062;-54
2023/06/22 07:39:59;;;;;;;6.13;2.95;;;23.90;1.00;;;;;;4934922;29;20115;-56
2023/06/22 07:42:26;;;;;;;2.55;1.98;;;24.00;1.00;;;;;;4934593;29;20043;-54
2023/06/22 07:44:54;;;;;;;3.35;2.28;;;23.90;1.00;;;;;;4935019;29;20044;-54
2023/06/22 07:47:25;;;;;;;2.80;2.17;;;24.00;1.00;;;;;;4934819;29;20099;-53
2023/06/22 07:49:54;;;;;;;2.88;2.00;;;23.90;1.00;;;;;;4934839;29;20044;-54
2023/06/22 07:52:21;;;;;;;3.42;2.17;;;23.90;1.00;;;;;;4930031;29;20080;-53
2023/06/22 07:54:48;;;;;;;5.78;3.67;;;24.00;1.00;;;;;;4934960;29;20047;-52
2023/06/22 07:57:15;;;;;;;5.15;2.50;;;24.00;1.00;;;;;;4935099;29;20115;-53
2023/06/22 07:59:42;;;;;;;2.72;2.42;;;24.00;1.00;;;;;;4935007;29;20095;-54
2023/06/22 08:02:09;;;;;;;3.80;2.65;;;24.00;1.00;;;;;;4934626;29;20074;-54
2023/06/22 08:04:37;;;;;;;4.30;2.55;;;24.00;1.00;;;;;;4919805;29;20071;-56
2023/06/22 08:07:04;;;;;;;5.05;2.47;;;24.00;1.00;;;;;;5083410;23;20051;-52
2023/06/22 08:09:32;;;;;;;3.78;2.20;;;24.00;1.00;;;;;;4915463;29;20098;-57
2023/06/22 08:11:59;;;;;;;5.07;2.13;;;24.00;1.00;;;;;;4915179;29;20452;-54
2023/06/22 08:14:27;;;;;;;4.20;2.47;;;24.00;1.00;;;;;;4915384;29;20381;-51
2023/06/22 08:16:54;;;;;;;3.35;2.53;;;24.00;1.00;;;;;;4915523;29;20118;-54
2023/06/22 08:19:21;;;;;;;3.83;2.13;;;24.00;1.00;;;;;;4915506;29;20044;-53
2023/06/22 08:21:47;;;;;;;3.47;2.20;;;24.00;1.00;;;;;;4915348;29;20051;-51
2023/06/22 08:24:14;;;;;;;4.60;2.80;;;24.00;1.00;;;;;;4915175;29;20497;-51
2023/06/22 08:26:41;;;;;;;2.42;1.90;;;24.00;1.00;;;;;;4915334;29;20135;-54
2023/06/22 08:29:08;;;;;;;7.15;2.30;;;24.00;1.00;;;;;;4915413;29;20103;-54
2023/06/22 08:31:35;;;;;;;3.38;2.60;;;24.00;1.00;;;;;;4915263;29;20048;-52
2023/06/22 08:34:02;;;;;;;5.22;2.30;;;24.00;1.00;;;;;;4916561;29;20044;-50
2023/06/22 08:36:32;;;;;;;5.35;2.53;;;24.00;1.00;;;;;;4918566;29;20028;-55
2023/06/22 08:39:01;;;;;;;4.10;2.38;;;24.00;1.00;;;;;;4919419;29;20052;-53
2023/06/22 08:41:28;;;;;;;3.92;2.22;;;24.00;1.00;;;;;;4918973;29;20461;-54
2023/06/22 08:43:55;;;;;;;6.18;2.75;;;24.00;1.00;;;;;;4919053;29;20123;-53
2023/06/22 08:46:29;;;;;;;5.25;2.58;;;24.00;1.00;;;;;;4918847;29;20100;-52
2023/06/22 08:48:57;;;;;;;3.92;2.20;;;24.00;1.00;;;;;;4918992;29;20040;-54
2023/06/22 08:51:24;;;;;;;6.35;2.75;;;24.10;1.00;;;;;;4919012;29;20044;-55
2023/06/22 08:53:51;;;;;;;3.58;1.92;;;24.10;1.00;;;;;;4916852;29;20036;-52
2023/06/22 08:56:18;;;;;;;4.57;2.25;;;24.10;1.00;;;;;;4918942;29;20040;-51
2023/06/22 08:58:45;;;;;;;3.67;2.65;;;24.10;1.00;;;;;;4918954;29;20043;-55
2023/06/22 09:01:12;;;;;;;3.28;2.30;;;24.10;1.00;;;;;;4918503;29;20497;-54
2023/06/22 09:03:39;;;;;;;4.15;3.20;;;24.10;1.00;;;;;;4918701;29;20055;-53
2023/06/22 09:06:09;;;;;;;6.00;2.55;;;24.10;1.00;;;;;;4918604;29;20100;-54
2023/06/22 09:08:36;;;;;;;4.57;2.40;;;24.10;1.00;;;;;;4932236;23;20485;-56
2023/06/22 09:11:03;;;;;;;4.85;2.15;;;24.10;1.00;;;;;;4899769;29;20036;-51
2023/06/22 09:13:31;;;;;;;3.03;2.47;;;24.10;1.00;;;;;;4899528;29;20128;-52
2023/06/22 09:15:58;;;;;;;3.80;2.53;;;24.10;1.00;;;;;;4899633;29;20056;-53
2023/06/22 09:18:25;;;;;;;4.03;2.70;;;24.10;1.00;;;;;;4899665;29;20144;-53
2023/06/22 09:20:52;;;;;;;2.92;2.47;;;24.10;1.00;;;;;;4899526;29;20049;-52
2023/06/22 09:23:19;;;;;;;4.32;2.03;;;24.10;1.00;;;;;;4900509;29;20519;-54
2023/06/22 09:25:47;;;;;;;3.20;2.08;;;24.10;1.00;;;;;;4918158;29;20560;-54
2023/06/22 09:28:14;;;;;;;3.97;2.10;;;24.10;1.00;;;;;;4918433;29;20048;-55
2023/06/22 09:30:44;;;;;;;3.80;2.60;;;24.20;1.00;;;;;;4918319;29;20048;-54
2023/06/22 09:33:11;;;;;;;3.75;2.53;;;24.20;1.00;;;;;;4918046;29;20040;-51
2023/06/22 09:35:38;;;;;;;3.13;2.05;;;24.10;1.00;;;;;;4918568;29;20044;-55
2023/06/22 09:38:05;;;;;;;3.58;2.42;;;24.10;1.00;;;;;;5150761;23;20018;-56
2023/06/22 09:40:39;;;;;;;4.60;2.45;;;24.20;1.00;;;;;;4911146;29;20048;-53
2023/06/22 09:43:06;;;;;;;3.78;2.20;;;24.10;1.00;;;;;;4899110;29;20056;-51
2023/06/22 09:45:33;;;;;;;2.67;2.22;;;24.20;1.00;;;;;;4898695;29;20052;-54
2023/06/22 09:48:00;;;;;;;3.22;2.50;;;24.20;1.00;;;;;;4882141;29;20048;-53
2023/06/22 09:50:27;;;;;;;5.35;2.35;;;24.20;1.00;;;;;;4898896;29;20049;-54
2023/06/22 09:52:54;;;;;;;3.60;2.20;;;24.20;1.00;;;;;;4898932;29;20049;-50
2023/06/22 09:55:22;;;;;;;2.75;2.30;;;24.20;1.00;;;;;;4899018;29;20100;-55
2023/06/22 09:57:49;;;;;;;2.40;1.95;;;24.20;1.00;;;;;;4898925;29;20497;-54
2023/06/22 10:00:18;;;;;;;3.45;1.80;;;24.20;1.00;;;;;;4898674;29;20048;-51
2023/06/22 10:02:46;;;;;;;4.03;2.78;;;24.20;1.00;;;;;;4898667;29;20049;-53
2023/06/22 10:05:13;;;;;;;4.82;2.58;;;24.20;1.00;;;;;;4898797;29;20072;-53
2023/06/22 10:07:43;;;;;;;2.92;1.75;;;24.20;1.00;;;;;;4898796;29;20492;-51
2023/06/22 10:13:10;;;;;;;2.72;2.20;;;24.20;1.00;;;;;;5067590;23;20138;-55
2023/06/22 10:15:38;;;;;;;4.05;2.47;;;24.20;1.00;;;;;;4917634;29;20044;-56
2023/06/22 10:18:05;;;;;;;3.13;2.10;;;24.20;1.00;;;;;;4917539;29;20464;-57
2023/06/22 10:20:32;;;;;;;4.78;2.72;;;24.20;1.00;;;;;;4917180;29;20047;-52
2023/06/22 10:22:59;;;;;;;5.78;2.58;;;24.20;1.00;;;;;;4917144;29;20048;-52
2023/06/22 10:25:26;;;;;;;2.70;2.40;;;24.20;1.00;;;;;;4917389;29;20123;-52
2023/06/22 10:27:54;;;;;;;4.53;2.08;;;24.20;1.00;;;;;;4917294;29;20555;-57
2023/06/22 10:30:21;;;;;;;3.22;2.38;;;24.20;1.00;;;;;;4917053;29;20123;-54
2023/06/22 10:32:48;;;;;;;3.90;2.20;;;24.20;1.00;;;;;;4917007;29;20123;-53
2023/06/22 10:35:15;;;;;;;4.82;2.65;;;24.20;1.00;;;;;;4916939;29;20124;-53
2023/06/22 10:37:47;;;;;;;4.43;3.13;;;24.20;1.00;;;;;;4917194;29;20036;-52
2023/06/22 10:40:15;;;;;;;2.95;2.22;;;24.20;1.00;;;;;;4916826;29;20580;-54
2023/06/22 10:42:42;;;;;;;3.03;2.22;;;24.30;1.00;;;;;;4916757;29;20164;-56
2023/06/22 10:45:09;;;;;;;3.17;2.08;;;24.20;1.00;;;;;;4917172;29;20116;-56
2023/06/22 10:47:37;;;;;;;3.65;2.55;;;24.20;1.00;;;;;;4909233;29;20052;-52
2023/06/22 10:50:04;;;;;;;2.28;1.98;;;24.20;1.00;;;;;;4916829;29;20119;-55
2023/06/22 10:52:31;;;;;;;2.78;2.22;;;24.20;1.00;;;;;;4916506;29;20050;-52
2023/06/22 10:54:58;;;;;;;4.35;2.28;;;24.20;1.00;;;;;;4916860;29;20115;-54
2023/06/22 10:57:25;;;;;;;3.45;2.08;;;24.20;1.00;;;;;;4915796;29;20489;-53
2023/06/22 10:59:52;;;;;;;3.00;2.13;;;24.20;1.00;;;;;;4916754;29;20492;-54
2023/06/22 11:02:19;;;;;;;3.60;2.58;;;24.20;1.00;;;;;;4916264;29;20048;-56
2023/06/22 11:04:47;;;;;;;3.00;2.25;;;24.30;1.00;;;;;;4916665;29;20052;-58
2023/06/22 11:07:15;;;;;;;3.33;1.88;;;24.30;1.00;;;;;;4916417;29;20092;-57
2023/06/22 11:09:45;;;;;;;3.55;2.10;;;24.30;1.00;;;;;;4916554;29;20119;-56
2023/06/22 11:12:12;;;;;;;3.92;2.40;;;24.30;1.00;;;;;;4915782;29;20088;-59
2023/06/22 11:14:39;;;;;;;2.63;1.83;;;24.30;1.00;;;;;;4916127;29;20048;-58
2023/06/22 11:17:06;;;;;;;3.38;2.58;;;24.30;1.00;;;;;;4916518;29;20040;-55
2023/06/22 11:19:33;;;;;;;3.00;2.40;;;24.30;1.00;;;;;;4916560;29;20128;-57
2023/06/22 11:21:59;;;;;;;2.97;2.17;;;24.30;1.00;;;;;;4916052;29;20043;-55
2023/06/22 11:24:26;;;;;;;2.58;2.15;;;24.30;1.00;;;;;;4916345;29;20074;-52
2023/06/22 11:26:53;;;;;;;4.18;2.20;;;24.30;1.00;;;;;;4916279;29;20048;-55
2023/06/22 11:29:20;;;;;;;2.88;2.00;;;24.30;1.00;;;;;;4916331;29;20439;-51
2023/06/22 11:32:07;;;;;;;3.10;2.08;;;24.30;1.00;;;;;;4915861;29;20127;-55
2023/06/22 11:34:36;;;;;;;4.03;1.95;;;24.30;1.00;;;;;;4899136;29;20222;-55
2023/06/22 11:37:03;;;;;;;4.22;2.22;;;24.30;1.00;;;;;;4916153;29;20041;-54
2023/06/22 11:39:29;;;;;;;5.05;2.30;;;24.30;1.00;;;;;;4916199;29;20044;-52
2023/06/22 11:42:09;;;;;;;4.55;2.70;;;24.30;1.00;;;;;;4915724;29;20043;-53
2023/06/22 11:44:36;;;;;;;3.63;2.60;;;24.30;1.00;;;;;;4914493;29;20059;-54
2023/06/22 11:47:04;;;;;;;3.35;2.05;;;24.30;1.00;;;;;;4916013;29;20040;-54
2023/06/22 11:49:32;;;;;;;6.13;2.63;;;24.30;1.00;;;;;;4915864;29;20086;-52
2023/06/22 11:51:59;;;;;;;3.38;2.35;;;24.30;1.00;;;;;;4915815;29;20203;-55
2023/06/22 11:54:25;;;;;;;3.85;2.70;;;24.30;1.00;;;;;;4915832;29;20044;-55
2023/06/22 11:56:52;;;;;;;2.95;2.47;;;24.30;1.00;;;;;;4915684;29;20042;-53
2023/06/22 11:59:22;;;;;;;2.38;1.75;;;24.30;1.00;;;;;;4915839;29;20048;-54
2023/06/22 12:01:50;;;;;;;3.50;2.03;;;24.30;1.00;;;;;;4916025;29;20385;-51
2023/06/22 12:04:18;;;;;;;2.88;2.25;;;24.30;1.00;;;;;;4915807;29;20047;-52
2023/06/22 12:06:44;;;;;;;3.25;1.80;;;24.30;1.00;;;;;;4916041;29;20048;-52
2023/06/22 12:09:13;;;;;;;2.70;2.00;;;24.30;1.00;;;;;;4915695;29;20044;-53
2023/06/22 12:11:40;;;;;;;3.63;2.13;;;24.30;1.00;;;;;;4915501;29;20051;-53
2023/06/22 12:14:07;;;;;;;4.03;2.25;;;24.30;1.00;;;;;;4915809;29;20036;-56
2023/06/22 12:16:34;;;;;;;3.05;2.20;;;24.30;1.00;;;;;;5063148;23;20455;-52
2023/06/22 12:19:01;;;;;;;2.40;2.08;;;24.40;1.00;;;;;;4934974;29;20131;-55
2023/06/22 12:21:28;;;;;;;2.63;2.40;;;24.30;1.00;;;;;;4936421;29;20543;-52
2023/06/22 12:23:56;;;;;;;2.65;2.28;;;24.40;1.00;;;;;;4937229;29;20043;-55
2023/06/22 12:26:22;;;;;;;3.75;2.35;;;24.30;1.00;;;;;;4936892;29;20031;-56
2023/06/22 12:28:49;;;;;;;1.70;1.48;;;24.30;1.00;;;;;;4937315;29;20403;-53
2023/06/22 12:31:17;;;;;;;4.47;2.25;;;24.30;1.00;;;;;;4936695;29;20114;-54
2023/06/22 12:33:44;;;;;;;2.90;2.00;;;24.30;1.00;;;;;;4934942;29;20036;-56
2023/06/22 12:36:11;;;;;;;2.42;2.00;;;24.30;1.00;;;;;;4935271;29;20050;-57
2023/06/22 12:38:38;;;;;;;3.42;2.15;;;24.40;1.00;;;;;;4934686;29;20123;-58
2023/06/22 12:41:04;;;;;;;2.65;1.88;;;24.40;1.00;;;;;;4936441;29;20488;-56
2023/06/22 12:43:31;;;;;;;2.95;2.00;;;24.40;1.00;;;;;;4934090;29;20058;-57
2023/06/22 12:46:23;;;;;;;3.13;2.30;;;24.40;1.00;;;;;;5228335;23;20022;31
2023/06/22 12:48:50;;;;;;;2.15;1.65;;;24.40;1.00;;;;;;4876820;29;20128;-58
2023/06/22 12:51:22;;;;;;;2.45;1.60;;;24.40;1.00;;;;;;4888123;29;20072;-58
2023/06/22 12:53:49;;;;;;;2.35;1.70;;;24.40;1.00;;;;;;4896251;29;20497;-58
2023/06/22 12:56:15;;;;;;;2.83;1.75;;;24.40;1.00;;;;;;4896610;29;20120;-56
2023/06/22 12:58:42;;;;;;;2.47;1.98;;;24.40;1.00;;;;;;4896738;29;20048;-58
2023/06/22 13:01:09;;;;;;;2.70;2.03;;;24.40;1.00;;;;;;4896645;29;20041;-58
2023/06/22 13:03:36;;;;;;;2.92;1.70;;;24.40;1.00;;;;;;4896232;29;20509;-56
2023/06/22 13:06:03;;;;;;;1.90;1.60;;;24.40;1.00;;;;;;4896138;29;20044;-59
2023/06/22 13:08:30;;;;;;;1.83;1.38;;;24.40;1.00;;;;;;4896034;29;20123;-59
2023/06/22 13:11:17;;;;;;;2.33;1.50;;;24.40;1.00;;;;;;4895910;29;20049;-56
2023/06/22 13:13:45;;;;;;;3.65;1.80;;;24.40;1.00;;;;;;4896014;29;20072;-59